Vitsentzos Kornaros — SXNX — position and weather

sailwx.info

Track history (hours):
 
Tides and Currents Weather Stations Pressure Air Temp Water Temp Dewpoint Dewpoint Depression Visibility Wind Speed Wind Dir Waves Ship Positions

Vitsentzos Kornaros

Last reported at 2014-Oct-20 16:21 UTC. Time now 2014-Oct-22 12:19 UTC.
Position N 37°30' E 023°39'.

Length 128 m; draft 4.5 m.

Type: Passenger vessel. MMSI: 239311000.

Date/timePositionNaut miles runAvg speedWind from/ knotsBaromVisibWave heightAir tempDewpointWater temp
2014-Oct-20 16:21N 37°30' E 023°39'1113.9
2014-Oct-20 15:33N 37°40' E 023°41'1313.3
2014-Oct-20 14:33N 37°53' E 023°37'4 3.8
2014-Oct-20 13:34N 37°57' E 023°38'0 0.0
2014-Oct-20 12:33N 37°57' E 023°38'0 0.0
2014-Oct-20 11:33N 37°57' E 023°38'0 0.0
2014-Oct-20 10:34N 37°57' E 023°38'0 0.0
2014-Oct-20 09:34N 37°57' E 023°38'0 0.0
2014-Oct-20 08:34N 37°57' E 023°38'0 0.0
2014-Oct-20 07:34N 37°57' E 023°38'0 0.2
2014-Oct-20 06:33N 37°57' E 023°38'10 9.6
2014-Oct-20 05:33N 37°47' E 023°41'1111.0
2014-Oct-20 04:33N 37°36' E 023°44'112 2.2
2014-Oct-18 02:16N 35°45' E 023°30'1313.6
2014-Oct-18 01:20N 35°54' E 023°19'30 7.8
2014-Oct-17 21:32N 36°23' E 023°11'4113.7
2014-Oct-17 18:33N 37°01' E 023°28'1813.5
2014-Oct-17 17:15N 37°18' E 023°36'1013.8
2014-Oct-17 16:32N 37°27' E 023°39'1313.4
2014-Oct-17 15:33N 37°40' E 023°42'1312.8
2014-Oct-17 14:33N 37°53' E 023°37'4 4.4
2014-Oct-17 13:33N 37°57' E 023°38'0 0.0
2014-Oct-17 12:33N 37°57' E 023°38'0 0.0
2014-Oct-17 11:33N 37°57' E 023°38'0 0.0
2014-Oct-17 10:33N 37°57' E 023°38'0 0.0
2014-Oct-17 09:33N 37°57' E 023°38'0 0.0
2014-Oct-17 08:33N 37°57' E 023°38'0 0.0
2014-Oct-17 07:33N 37°57' E 023°38'0 0.0
2014-Oct-17 06:33N 37°57' E 023°38'0 0.0
2014-Oct-17 05:33N 37°57' E 023°38'0 0.0
2014-Oct-17 04:33N 37°57' E 023°38'2 1.5
2014-Oct-17 03:33N 37°56' E 023°37'1110.8
2014-Oct-17 02:34N 37°46' E 023°43'1313.0
2014-Oct-17 01:33N 37°33' E 023°43'1414.5
2014-Oct-17 00:33N 37°20' E 023°36'1514.9
2014-Oct-16 23:33N 37°06' E 023°29'1514.7
2014-Oct-16 22:33N 36°52' E 023°23'1814.5
2014-Oct-16 21:20N 36°35' E 023°17'2110.3
2014-Oct-16 19:18N 36°17' E 023°04'912.4
2014-Oct-16 18:33N 36°11' E 023°13'1312.8
2014-Oct-16 17:33N 35°60' E 023°21'1312.9
2014-Oct-16 16:33N 35°49' E 023°30'7 0.3
2014-Oct-15 19:21N 35°43' E 023°32'1613.9
2014-Oct-15 18:13N 35°54' E 023°19'6310.2
2014-Oct-15 12:03N 36°46' E 022°34'814.1
2014-Oct-15 11:30N 36°40' E 022°41'1514.4
2014-Oct-15 10:30N 36°28' E 022°52'1314.2
2014-Oct-15 09:33N 36°18' E 023°03'8 7.6
2014-Oct-15 08:33N 36°13' E 023°09'1414.2
2014-Oct-15 07:33N 35°60' E 023°16'8 8.3
2014-Oct-15 06:32N 35°52' E 023°21'1413.8
2014-Oct-15 05:32N 35°42' E 023°33'12 0.5
2014-Oct-14 03:05N 35°31' E 023°39'5710.4
2014-Oct-13 21:33N 36°24' E 023°13'6713.2
2014-Oct-13 16:26N 37°29' E 023°38'1213.4
2014-Oct-13 15:33N 37°40' E 023°42'1313.3
2014-Oct-13 14:33N 37°53' E 023°37'4 4.0
2014-Oct-13 13:34N 37°57' E 023°38'0 0.0
2014-Oct-13 12:33N 37°57' E 023°38'0 0.0
2014-Oct-13 11:33N 37°57' E 023°38'0 0.0
2014-Oct-13 10:33N 37°57' E 023°38'0 0.0
2014-Oct-13 09:20N 37°57' E 023°38'0 0.0
2014-Oct-13 08:33N 37°57' E 023°38'0 0.0
2014-Oct-13 07:32N 37°57' E 023°38'0 0.0
2014-Oct-13 06:34N 37°57' E 023°38'1 1.4
2014-Oct-13 05:33N 37°56' E 023°37'1212.0
2014-Oct-13 04:33N 37°45' E 023°43'1211.8
2014-Oct-13 03:33N 37°33' E 023°42'2912.5
2014-Oct-13 01:13N 37°06' E 023°28'912.8
2014-Oct-13 00:30N 36°57' E 023°25'1212.2
2014-Oct-12 23:33N 36°46' E 023°22'  
2014-Oct-10 16:28N 37°26' E 023°38'  
Track history (hours):
 
Tides and Currents Weather Stations Pressure Air Temp Water Temp Dewpoint Dewpoint Depression Visibility Wind Speed Wind Dir Waves Ship Positions

Vitsentzos Kornaros

Last reported at 2014-Oct-20 16:21 UTC. Time now 2014-Oct-22 12:19 UTC.
Position N 37°30' E 023°39'.

Length 128 m; draft 4.5 m.

Type: Passenger vessel. MMSI: 239311000.

Date/timePositionNaut miles runAvg speedWind from/ knotsBaromVisibWave heightAir tempDewpointWater temp
2014-Oct-20 16:21N 37°30' E 023°39'1113.9
2014-Oct-20 15:33N 37°40' E 023°41'1313.3
2014-Oct-20 14:33N 37°53' E 023°37'4 3.8
2014-Oct-20 13:34N 37°57' E 023°38'0 0.0
2014-Oct-20 12:33N 37°57' E 023°38'0 0.0
2014-Oct-20 11:33N 37°57' E 023°38'0 0.0
2014-Oct-20 10:34N 37°57' E 023°38'0 0.0
2014-Oct-20 09:34N 37°57' E 023°38'0 0.0
2014-Oct-20 08:34N 37°57' E 023°38'0 0.0
2014-Oct-20 07:34N 37°57' E 023°38'0 0.2
2014-Oct-20 06:33N 37°57' E 023°38'10 9.6
2014-Oct-20 05:33N 37°47' E 023°41'1111.0
2014-Oct-20 04:33N 37°36' E 023°44'112 2.2
2014-Oct-18 02:16N 35°45' E 023°30'1313.6
2014-Oct-18 01:20N 35°54' E 023°19'30 7.8
2014-Oct-17 21:32N 36°23' E 023°11'4113.7
2014-Oct-17 18:33N 37°01' E 023°28'1813.5
2014-Oct-17 17:15N 37°18' E 023°36'1013.8
2014-Oct-17 16:32N 37°27' E 023°39'1313.4
2014-Oct-17 15:33N 37°40' E 023°42'1312.8
2014-Oct-17 14:33N 37°53' E 023°37'4 4.4
2014-Oct-17 13:33N 37°57' E 023°38'0 0.0
2014-Oct-17 12:33N 37°57' E 023°38'0 0.0
2014-Oct-17 11:33N 37°57' E 023°38'0 0.0
2014-Oct-17 10:33N 37°57' E 023°38'0 0.0
2014-Oct-17 09:33N 37°57' E 023°38'0 0.0
2014-Oct-17 08:33N 37°57' E 023°38'0 0.0
2014-Oct-17 07:33N 37°57' E 023°38'0 0.0
2014-Oct-17 06:33N 37°57' E 023°38'0 0.0
2014-Oct-17 05:33N 37°57' E 023°38'0 0.0
2014-Oct-17 04:33N 37°57' E 023°38'2 1.5
2014-Oct-17 03:33N 37°56' E 023°37'1110.8
2014-Oct-17 02:34N 37°46' E 023°43'1313.0
2014-Oct-17 01:33N 37°33' E 023°43'1414.5
2014-Oct-17 00:33N 37°20' E 023°36'1514.9
2014-Oct-16 23:33N 37°06' E 023°29'1514.7
2014-Oct-16 22:33N 36°52' E 023°23'1814.5
2014-Oct-16 21:20N 36°35' E 023°17'2110.3
2014-Oct-16 19:18N 36°17' E 023°04'912.4
2014-Oct-16 18:33N 36°11' E 023°13'1312.8
2014-Oct-16 17:33N 35°60' E 023°21'1312.9
2014-Oct-16 16:33N 35°49' E 023°30'7 0.3
2014-Oct-15 19:21N 35°43' E 023°32'1613.9
2014-Oct-15 18:13N 35°54' E 023°19'6310.2
2014-Oct-15 12:03N 36°46' E 022°34'814.1
2014-Oct-15 11:30N 36°40' E 022°41'1514.4
2014-Oct-15 10:30N 36°28' E 022°52'1314.2
2014-Oct-15 09:33N 36°18' E 023°03'8 7.6
2014-Oct-15 08:33N 36°13' E 023°09'1414.2
2014-Oct-15 07:33N 35°60' E 023°16'8 8.3
2014-Oct-15 06:32N 35°52' E 023°21'1413.8
2014-Oct-15 05:32N 35°42' E 023°33'12 0.5
2014-Oct-14 03:05N 35°31' E 023°39'5710.4
2014-Oct-13 21:33N 36°24' E 023°13'6713.2
2014-Oct-13 16:26N 37°29' E 023°38'1213.4
2014-Oct-13 15:33N 37°40' E 023°42'1313.3
2014-Oct-13 14:33N 37°53' E 023°37'4 4.0
2014-Oct-13 13:34N 37°57' E 023°38'0 0.0
2014-Oct-13 12:33N 37°57' E 023°38'0 0.0
2014-Oct-13 11:33N 37°57' E 023°38'0 0.0
2014-Oct-13 10:33N 37°57' E 023°38'0 0.0
2014-Oct-13 09:20N 37°57' E 023°38'0 0.0
2014-Oct-13 08:33N 37°57' E 023°38'0 0.0
2014-Oct-13 07:32N 37°57' E 023°38'0 0.0
2014-Oct-13 06:34N 37°57' E 023°38'1 1.4
2014-Oct-13 05:33N 37°56' E 023°37'1212.0
2014-Oct-13 04:33N 37°45' E 023°43'1211.8
2014-Oct-13 03:33N 37°33' E 023°42'2912.5
2014-Oct-13 01:13N 37°06' E 023°28'912.8
2014-Oct-13 00:30N 36°57' E 023°25'1212.2
2014-Oct-12 23:33N 36°46' E 023°22'  
2014-Oct-10 16:28N 37°26' E 023°38'  

Dump ship's entire track history